Tiempo atmosférico en la estación meteorológica de Villanueva Del Arzobispo, Jaén (680 m.)



Fecha
DESCASC
Temp. máxima en grados centígrados (hora)
DESCASC
Temp. mínima en grados centígrados (hora)
DESCASC
Temp. media en grados centígrados
DESCASC
Racha de viento máxima en m/sg (hora)
DESCASC
Velocidad máxima media en intervalos de 10 minutos(hora)
DESCASC
Precipitaciones diarias en mm
DESCASC
Precipitaciones de 00:00 a 06:00 en mm
DESCASC
Precipitaciones de 06:00 a 12:00 en mm
DESCASC
Precipitaciones de 12:00 a 18:00 en mm
DESCASC
Precipitaciones de 18:00 a 24:00 en mm
DESCASC
13-01-2021 12.8 (15:00) -3.4 (07:20) 4.7 4.72 (14:20) 2.22 (15:20) 0 0 0 0 0
12-01-2021 8.8 (14:50) -4.1 (09:00) 2.4 2.5 (15:30) 1.39 (15:20) 0 0 0 0 0
11-01-2021 7.7 (14:50) -2.5 (08:10) 2.6 3.61 (17:20) 1.94 (17:30) 0.2 0 0 0.2 0
10-01-2021 8.9 (14:50) -0.8 (00:10) 4 4.72 (04:20) 2.5 (04:20) 0.2 0 0.2 0 0
09-01-2021 5.7 (00:00) -1 (-00:0) 2.3 8.33 (13:30) 3.33 (03:40) 15.8 10.6 5.2 0 0
08-01-2021 7.3 (14:50) 1.9 (00:00) 4.6 3.06 (23:20) 1.39 (22:50) 15.8 6 2 0.2 7.6
07-01-2021 3.7 (12:00) 2.2 (00:00) 3 3.89 (04:10) 1.39 (12:30) 13.8 2.6 2.4 5.8 3
06-01-2021 7 (16:00) -0.1 (00:00) 3.4 2.78 (22:20) 1.39 (13:40) 1 0 0 0 1
05-01-2021 6.6 (14:50) -1.7 (-00:0) 2.4 3.06 (14:00) 1.39 (14:00) 0.4 0 0.2 0.2 0
04-01-2021 4 (16:10) -0.8 (-00:0) 1.6 5.83 (13:30) 2.22 (22:10) 2.2 0 0 0 2.2
03-01-2021 7.5 (14:40) -2.5 (-00:0) 2.5 5.83 (14:50) 2.78 (10:30) 0 0 0 0 0
02-01-2021 6.5 (14:40) -1.3 (-00:0) 2.6 5 (11:20) 2.22 (11:30) 0 0 0 0 0
01-01-2021 6.8 (15:00) 2.9 (00:00) 4.9 9.44 (04:30) 4.17 (01:30) 4.2 4 0 0.2 0
31-12-2020 9.2 (14:40) -3.2 (-00:0) 3 6.94 (17:10) 3.61 (17:10) 0.2 0 0 0 0.2
30-12-2020 7.1 (14:50) -1.4 (-00:0) 2.8 4.17 (01:50) 1.94 (01:50) 0 0 0 0 0
29-12-2020 5.5 (15:50) 2.5 (00:00) 4 7.78 (19:10) 3.61 (11:40) 1.4 0 0 1.4 0
28-12-2020 10.8 (14:50) 3.3 (00:00) 7.1 12.78 (10:40) 6.11 (03:00) 6.4 0 6.4 0 0
27-12-2020 11 (14:40) -3.9 (-00:0) 3.5 5.83 (23:20) 3.33 (16:30) 0 0 0 0 0
26-12-2020 7.8 (14:50) -3.8 (-00:0) 2 6.67 (12:10) 3.61 (12:10) 0 0 0 0 0
25-12-2020 10.9 (13:40) 1.1 (00:00) 6 8.61 (14:10) 4.72 (14:10) 0 0 0 0 0
24-12-2020 15.4 (14:50) 7 (00:00) 11.2 5 (15:20) 2.5 (15:20) 0 0 0 0 0
23-12-2020 16.2 (14:40) 5.6 (00:00) 10.9 5.28 (16:10) 2.78 (21:10) 0 0 0 0 0
22-12-2020 17.8 (14:40) 4.9 (00:00) 11.3 3.33 (19:20) 1.94 (19:20) 0 0 0 0 0
21-12-2020 14.9 (16:00) 3.3 (00:00) 9.1 2.5 (05:50) 1.39 (14:10) 0.2 0 0 0.2 0
20-12-2020 14.8 (14:40) 5.8 (00:00) 10.3 3.61 (16:00) 1.67 (16:00) 2.8 2.6 0.2 0 0
19-12-2020 12.9 (13:30) 4.5 (00:00) 8.7 4.17 (13:10) 2.22 (13:00) 1 0 0 0 1
18-12-2020 15.5 (14:00) 4.5 (00:00) 10 4.17 (21:40) 2.5 (21:50) 0 0 0 0 0

Gráficas

Temp. máximas Temp. mínimas Temp. medias Precipitaciones Rachas de viento máximas Velocidades máximas media en intervalos de 10 minutos

Datos horarios

Fecha y hora oficial Temperatura (ºC) Velocidad del viento (km/h) Dirección del viento Racha (km/h) Dirección de racha Precipitación (mm) Presión (hPa) Tendencia (hPa) Humedad (%)
2021-01-16 23:00:00 2.6 4 Sur 6 Sur 0 -- -- 67
2021-01-16 22:00:00 3.5 0 Calma 6 Sur 0 -- -- 64
2021-01-16 21:00:00 4.7 3 Sur 6 Sur 0 -- -- 59
2021-01-16 20:00:00 5.5 0 Calma 11 Este 0 -- -- 56
2021-01-16 19:00:00 5.7 0 Calma 5 Sur 0 -- -- 58
2021-01-16 18:00:00 9.5 0 Calma 10 Norte 0 -- -- 47
2021-01-16 17:00:00 12.1 5 Norte 13 Norte 0 -- -- 40
2021-01-16 16:00:00 12.2 7 Norte 16 Noroeste 0 -- -- 38
2021-01-16 15:00:00 11.9 6 Noroeste 17 Norte 0 -- -- 40
2021-01-16 14:00:00 10.3 9 Norte 21 Noroeste 0 -- -- 43
2021-01-16 13:00:00 8.6 10 Norte 22 Norte 0 -- -- 47
2021-01-16 12:00:00 6.1 4 Norte 8 Norte 0 -- -- 59
2021-01-16 11:00:00 2.1 0 Calma 5 Norte 0 -- -- 77
2021-01-16 10:00:00 -0.1 0 Calma 6 Sur 0 -- -- 82
2021-01-16 09:00:00 -1.6 4 Sur 5 Sur 0 -- -- 89
2021-01-16 08:00:00 -2 2 Sur 6 Sur 0 -- -- 88
2021-01-16 07:00:00 -2 3 Sur 5 Sur 0 -- -- 88
2021-01-16 06:00:00 -2.1 0 Calma 5 Sur 0 -- -- 87
2021-01-16 05:00:00 -2.3 0 Calma 4 Sur 0 -- -- 86
2021-01-16 04:00:00 -1.8 0 Calma 5 Sur 0 -- -- 86
2021-01-16 03:00:00 -1.8 0 Calma 2 Sur 0 -- -- 86
2021-01-16 02:00:00 -1.2 0 Calma 3 Sur 0 -- -- 83
2021-01-16 01:00:00 -0.3 2 Sur 4 Sur 0 -- -- 81
2021-01-16 00:00:00 -0.2 0 Calma 2 Sur 0 -- -- 81
2021-01-15 23:00:00 0.4 0 Calma 3 Sur 0 -- -- 78
2021-01-15 22:00:00 1.6 2 Sur 4 Sudoeste 0 -- -- 74
2021-01-15 21:00:00 2.1 0 Calma 3 Sur 0 -- -- 72
2021-01-15 20:00:00 3.1 0 Calma 4 Sur 0 -- -- 72
2021-01-15 19:00:00 5 0 Calma 10 Nordeste 0 -- -- 64
2021-01-15 18:00:00 8 4 Nordeste 16 Norte 0 -- -- 55
2021-01-15 17:00:00 12.3 6 Nordeste 16 Nordeste 0 -- -- 39
2021-01-15 16:00:00 12.4 6 Norte 18 Este 0 -- -- 39
2021-01-15 15:00:00 13 9 Nordeste 22 Nordeste 0 -- -- 42
2021-01-15 14:00:00 11.4 7 Nordeste 24 Norte 0 -- -- 47
2021-01-15 13:00:00 9 8 Norte 17 Nordeste 0 -- -- 57
2021-01-15 12:00:00 6.9 10 Norte 18 Nordeste 0 -- -- 65
2021-01-15 11:00:00 2.7 3 Norte 5 Norte 0 -- -- 77
2021-01-15 10:00:00 -1.1 0 Calma 3 Sudoeste 0 -- -- 85
2021-01-15 09:00:00 -1.6 3 Sur 5 Sur 0 -- -- 85
2021-01-15 08:00:00 -2 2 Sur 5 Sur 0 -- -- 85
2021-01-15 07:00:00 -1.1 4 Sur 6 Sur 0 -- -- 85
2021-01-15 06:00:00 -1.5 0 Calma 5 Sur 0 -- -- 88
2021-01-15 05:00:00 -1.2 3 Sur 5 Sur 0 -- -- 93
2021-01-15 04:00:00 -0.9 0 Calma 6 Sur 0 -- -- 89
2021-01-15 03:00:00 -0.4 0 Calma 4 Sur 0 -- -- 90
2021-01-15 02:00:00 -0.3 0 Calma 2 Sur 0 -- -- 89
2021-01-15 01:00:00 0.4 0 Calma 4 Sur 0 -- -- 87
2021-01-15 00:00:00 1.6 0 Calma 6 Sur 0 -- -- 82
2021-01-14 23:00:00 2.4 0 Calma 2 Sudoeste 0 -- -- 79
2021-01-14 22:00:00 2.9 0 Calma 4 Este 0 -- -- 78
2021-01-14 21:00:00 4.1 2 Sur 6 Sur 0 -- -- 72
2021-01-14 20:00:00 4.4 3 Sur 9 Este 0 -- -- 72
2021-01-14 19:00:00 5.8 5 Este 9 Este 0 -- -- 63
2021-01-14 18:00:00 10.2 3 Noroeste 6 Norte 0 -- -- 51
2021-01-14 17:00:00 12.1 3 Noroeste 7 Noroeste 0 -- -- 40
2021-01-14 16:00:00 12 5 Noroeste 8 Noroeste 0 -- -- 34
2021-01-14 15:00:00 12.7 3 Noroeste 8 Norte 0 -- -- 34
2021-01-14 14:00:00 10.1 3 Noroeste 8 Noroeste 0 -- -- 43
2021-01-14 13:00:00 8.2 4 Noroeste 6 Noroeste 0 -- -- 51
2021-01-14 12:00:00 5.5 2 Norte 4 Noroeste 0 -- -- 65
2021-01-14 11:00:00 2.1 0 Calma 2 Noroeste 0 -- -- 74
2021-01-14 10:00:00 -0.4 0 Calma 0 Calma 0 -- -- 80
2021-01-14 09:00:00 -2.1 0 Calma 4 Sur 0 -- -- 87
2021-01-14 08:00:00 -2.4 0 Calma 0 Calma 0 -- -- 86
2021-01-14 07:00:00 -2.1 0 Calma 0 Calma 0 -- -- 83
2021-01-14 06:00:00 -1.2 0 Calma 2 Este 0 -- -- 80
2021-01-14 05:00:00 -1.4 0 Calma 2 Sudeste 0 -- -- 81
2021-01-14 04:00:00 -0.8 0 Calma 3 Este 0 -- -- 78
2021-01-14 03:00:00 0.3 0 Calma 3 Sudeste 0 -- -- 74
2021-01-14 02:00:00 -0.2 0 Calma 3 Sur 0 -- -- 77
2021-01-14 01:00:00 0.4 0 Calma 3 Sur 0 -- -- 73
2021-01-14 00:00:00 1.4 0 Calma 5 Sur 0 -- -- 69
2021-01-13 23:00:00 1.6 0 Calma 3 Sur 0 -- -- 67
2021-01-13 22:00:00 2.3 0 Calma 2 Sur 0 -- -- 64
2021-01-13 21:00:00 3.7 0 Calma 3 Sur 0 -- -- 59
2021-01-13 20:00:00 4.5 0 Calma 8 Este 0 -- -- 55
2021-01-13 19:00:00 6 3 Este 8 Sudeste 0 -- -- 54
2021-01-13 18:00:00 8.9 0 Calma 9 Noroeste 0 -- -- 44
2021-01-13 17:00:00 11.6 4 Noroeste 11 Norte 0 -- -- 33
2021-01-13 16:00:00 11.8 7 Noroeste 15 Noroeste 0 -- -- 34
2021-01-13 15:00:00 12.8 7 Norte 17 Norte 0 -- -- 31
2021-01-13 14:00:00 11.2 5 Norte 13 Nordeste 0 -- -- 36
2021-01-13 13:00:00 8.6 0 Calma 4 Norte 0 -- -- 48
2021-01-13 12:00:00 5.4 2 Noroeste 4 Noroeste 0 -- -- 56
2021-01-13 11:00:00 2 2 Sur 5 Sur 0 -- -- 71
2021-01-13 10:00:00 -1.3 3 Sur 4 Sur 0 -- -- 80
2021-01-13 09:00:00 -3.1 0 Calma 3 Sur 0 -- -- 87
2021-01-13 08:00:00 -3.1 2 Sur 4 Sur 0 -- -- 86
2021-01-13 07:00:00 -3.1 0 Calma 5 Sur 0 -- -- 86
2021-01-13 06:00:00 -3.1 3 Sur 5 Sur 0 -- -- 89
2021-01-13 05:00:00 -2.7 0 Calma 5 Sur 0 -- -- 87
2021-01-13 04:00:00 -2.7 0 Calma 5 Sur 0 -- -- 85
2021-01-13 03:00:00 -1.7 3 Sur 5 Sur 0 -- -- 85
2021-01-13 02:00:00 -1.8 2 Sur 5 Sur 0 -- -- 86
2021-01-13 01:00:00 -0.9 3 Sur 6 Sur 0 -- -- 81
2021-01-13 00:00:00 -0.1 4 Sur 5 Sur 0 -- -- 79
2021-01-12 23:00:00 0.5 4 Sur 6 Sur 0 -- -- 77
2021-01-12 22:00:00 0 0 Calma 0 Calma 0 -- -- 78
2021-01-12 21:00:00 1.3 0 Calma 8 Este 0 -- -- 72
2021-01-12 20:00:00 2 0 Calma 6 Sur 0 -- -- 68
2021-01-12 19:00:00 2.5 0 Calma 4 Este 0 -- -- 65
2021-01-12 18:00:00 5.9 0 Calma 6 Nordeste 0 -- -- 50
2021-01-12 17:00:00 7.9 3 Noroeste 6 Norte 0 -- -- 47
2021-01-12 16:00:00 7.7 2 Norte 9 Noroeste 0 -- -- 54
2021-01-12 15:00:00 8.5 4 Noroeste 8 Noroeste 0 -- -- 57
2021-01-12 14:00:00 6.5 3 Norte 8 Norte 0 -- -- 68
2021-01-12 13:00:00 4.2 3 Noroeste 8 Noroeste 0 -- -- 78
2021-01-12 12:00:00 1.5 2 Noroeste 5 Noroeste 0 -- -- 91
2021-01-12 11:00:00 -0.6 0 Calma 2 Noroeste 0 -- -- 96
2021-01-12 10:00:00 -2.5 0 Calma 3 Sudeste 0 -- -- 96
2021-01-12 09:00:00 -4.1 0 Calma 4 Sur 0 -- -- 96
2021-01-12 08:00:00 -3.9 0 Calma 4 Sur 0 -- -- 95
2021-01-12 07:00:00 -3.9 2 Sur 4 Sur 0 -- -- 96
2021-01-12 06:00:00 -3.6 0 Calma 4 Sur 0 -- -- 95
2021-01-12 05:00:00 -3.3 2 Sur 3 Sudoeste 0 -- -- 95
2021-01-12 04:00:00 -3 2 Sur 4 Sur 0 -- -- 95
2021-01-12 03:00:00 -2.6 2 Sur 4 Sur 0 -- -- 94
2021-01-12 02:00:00 -2.8 0 Calma 3 Sur 0 -- -- 94
2021-01-12 01:00:00 -2.6 0 Calma 3 Sur 0 -- -- 94
2021-01-12 00:00:00 -2 0 Calma 2 Sur 0 -- -- 93
2021-01-11 23:00:00 -1.5 0 Calma 2 Oeste 0 -- -- 92
2021-01-11 22:00:00 -0.7 0 Calma 3 Norte 0 -- -- 92
2021-01-11 21:00:00 0.7 0 Calma 3 Nordeste 0 -- -- 91
2021-01-11 20:00:00 1 0 Calma 13 Norte 0 -- -- 87
2021-01-11 19:00:00 2.6 5 Nordeste 11 Nordeste 0 -- -- 84
2021-01-11 18:00:00 4.8 4 Nordeste 13 Norte 0.2 -- -- 74
2021-01-11 17:00:00 6.8 4 Noroeste 9 Noroeste 0 -- -- 62
2021-01-11 16:00:00 7 4 Norte 11 Noroeste 0 -- -- 59
2021-01-11 15:00:00 7.7 4 Noroeste 10 Noroeste 0 -- -- 59
2021-01-11 14:00:00 6.4 3 Norte 9 Norte 0 -- -- 65
2021-01-11 13:00:00 4.9 3 Oeste 8 Noroeste 0 -- -- 69
2021-01-11 12:00:00 2.4 3 Noroeste 7 Norte 0 -- -- 85
2021-01-11 11:00:00 0.5 0 Calma 4 Noroeste 0 -- -- 95
2021-01-11 10:00:00 -1.6 2 Sur 3 Sur 0 -- -- 96
2021-01-11 09:00:00 -2.3 0 Calma 5 Sur 0 -- -- 96
2021-01-11 08:00:00 -2.3 2 Sur 4 Sur 0 -- -- 95
2021-01-11 07:00:00 -2 3 Sur 4 Sur 0 -- -- 96
2021-01-11 06:00:00 -1.9 0 Calma 6 Sur 0 -- -- 95
2021-01-11 05:00:00 -1.6 2 Sur 6 Sur 0 -- -- 96
2021-01-11 04:00:00 -1.7 2 Sur 5 Sur 0 -- -- 96
2021-01-11 03:00:00 -1.4 3 Sur 4 Sur 0 -- -- 96
2021-01-11 02:00:00 -1.4 0 Calma 5 Sur 0 -- -- 95
2021-01-11 01:00:00 -0.9 2 Sur 5 Sur 0 -- -- 95
2021-01-11 00:00:00 -0.4 3 Sur 9 Sur 0 -- -- 95
2021-01-10 23:00:00 -0.3 2 Sur 4 Sur 0 -- -- 94
2021-01-10 22:00:00 0.4 3 Sur 5 Sur 0 -- -- 92
2021-01-10 21:00:00 1.4 2 Sur 5 Sur 0 -- -- 88
2021-01-10 20:00:00 2.7 0 Calma 8 Norte 0 -- -- 80
2021-01-10 19:00:00 4.2 4 Sur 6 Sur 0 -- -- 72
2021-01-10 18:00:00 4.9 3 Sur 4 Sur 0 -- -- 74
2021-01-10 17:00:00 6 0 Calma 4 Oeste 0 -- -- 68
2021-01-10 16:00:00 7.6 3 Noroeste 9 Noroeste 0 -- -- 58
2021-01-10 15:00:00 8.1 3 Norte 9 Norte 0 -- -- 62
2021-01-10 14:00:00 7.7 4 Norte 9 Norte 0 -- -- 64
2021-01-10 13:00:00 6.4 3 Norte 9 Norte 0 -- -- 74
2021-01-10 12:00:00 4.2 2 Noroeste 6 Oeste 0 -- -- 84
2021-01-10 11:00:00 1.8 2 Norte 4 Nordeste 0.2 -- -- 97
2021-01-10 10:00:00 -0.4 0 Calma 4 Nordeste 0 -- -- 96
2021-01-10 09:00:00 -0.8 0 Calma 4 Sur 0 -- -- 96
2021-01-10 08:00:00 0.1 4 Sudeste 8 Sudeste 0 -- -- 95
2021-01-10 07:00:00 0 0 Calma 3 Sur 0 -- -- 95
2021-01-10 06:00:00 -0.2 0 Calma 13 Este 0 -- -- 93
2021-01-10 05:00:00 1.1 2 Este 17 Sudeste 0 -- -- 92
2021-01-10 04:00:00 0.7 5 Este 12 Este 0 -- -- 93
2021-01-10 03:00:00 -0.2 2 Sur 5 Sur 0 -- -- 96
2021-01-10 02:00:00 -0.3 2 Sur 4 Sur 0 -- -- 97
2021-01-10 01:00:00 -0.4 2 Sur 5 Sur 0 -- -- 97
2021-01-10 00:00:00 -0.7 3 Sur 6 Sur 0 -- -- 97
2021-01-09 23:00:00 -0.9 0 Calma 5 Sur 0 -- -- 96
2021-01-09 22:00:00 -0.8 0 Calma 3 Sur 0 -- -- 96
2021-01-09 21:00:00 -0.3 0 Calma 4 Sudoeste 0 -- -- 96
2021-01-09 20:00:00 0 0 Calma 5 Este 0 -- -- 93
2021-01-09 19:00:00 0.9 0 Calma 4 Sur 0 -- -- 90
2021-01-09 18:00:00 3.3 0 Calma 12 Oeste 0 -- -- 81
2021-01-09 17:00:00 4.7 6 Oeste 15 Oeste 0 -- -- 76
2021-01-09 16:00:00 5.1 3 Oeste 17 Sur 0 -- -- 79
2021-01-09 15:00:00 4.9 5 Oeste 15 Sudoeste 0 -- -- 93
2021-01-09 14:00:00 2.6 6 Oeste 30 Oeste 0 -- -- 98
2021-01-09 13:00:00 2.2 11 Oeste 26 Oeste 0 -- -- 98
2021-01-09 12:00:00 2.7 5 Oeste 22 Oeste 0 -- -- 98
2021-01-09 11:00:00 3 8 Oeste 21 Sudoeste 0 -- -- 98
2021-01-09 10:00:00 4 5 Oeste 18 Noroeste 0.6 -- -- 98
2021-01-09 09:00:00 4.5 3 Norte 9 Oeste 0.6 -- -- 98
2021-01-09 08:00:00 4.9 0 Calma 8 Sudoeste 1.6 -- -- 98
2021-01-09 07:00:00 5 3 Oeste 10 Oeste 2.4 -- -- 98
2021-01-09 06:00:00 5.1 3 Sudoeste 10 Sudeste 2 -- -- 98
2021-01-09 05:00:00 5.1 5 Sur 16 Sudoeste 0.2 -- -- 98
2021-01-09 04:00:00 5.1 9 Sur 25 Sur 2.2 -- -- 97
2021-01-09 03:00:00 5 0 Calma 4 Sudoeste 0.6 -- -- 98
2021-01-09 02:00:00 5.1 0 Calma 12 Sur 1.2 -- -- 97
2021-01-09 01:00:00 5.2 0 Calma 13 Este 4.4 -- -- 97
2021-01-09 00:00:00 5.7 3 Sudeste 11 Sur 4.8 -- -- 96
2021-01-08 23:00:00 5.6 3 Sur 10 Sur 2.4 -- -- 95
2021-01-08 22:00:00 5.8 3 Sudoeste 8 Sudoeste 0.4 -- -- 94
2021-01-08 21:00:00 6.1 2 Sur 9 Sudeste 0 -- -- 95
2021-01-08 20:00:00 5.5 5 Sur 9 Sudeste 0 -- -- 98
2021-01-08 19:00:00 6 0 Calma 5 Sur 0 -- -- 97
2021-01-08 18:00:00 6.1 0 Calma 4 Sudeste 0 -- -- 97
2021-01-08 17:00:00 6.5 0 Calma 4 Nordeste 0 -- -- 97
2021-01-08 16:00:00 6.6 2 Norte 7 Norte 0 -- -- 97
2021-01-08 15:00:00 7 2 Oeste 5 Oeste 0 -- -- 95
2021-01-08 14:00:00 6.3 0 Calma 5 Sudoeste 0.2 -- -- 97
2021-01-08 13:00:00 5.6 0 Calma 6 Oeste 0 -- -- 97
2021-01-08 12:00:00 4.6 0 Calma 5 Oeste 0.2 -- -- 97
2021-01-08 11:00:00 3.8 0 Calma 3 Noroeste 0.4 -- -- 98
2021-01-08 10:00:00 3.3 0 Calma 4 Sur 0.8 -- -- 98
2021-01-08 09:00:00 2.8 0 Calma 5 Sudoeste 0.2 -- -- 98
2021-01-08 08:00:00 2.5 0 Calma 6 Oeste 0 -- -- 98
2021-01-08 07:00:00 2.1 2 Sudoeste 5 Oeste 0.4 -- -- 98
2021-01-08 06:00:00 2.1 0 Calma 4 Norte 0.4 -- -- 98
2021-01-08 05:00:00 2 0 Calma 3 Noroeste 0.4 -- -- 98
2021-01-08 04:00:00 2.1 2 Norte 4 Norte 1 -- -- 98
2021-01-08 03:00:00 2.2 0 Calma 4 Noroeste 1.2 -- -- 98
2021-01-08 02:00:00 2.3 0 Calma 3 Noroeste 1.6 -- -- 98
2021-01-08 01:00:00 2.4 0 Calma 3 Noroeste 1.4 -- -- 98
2021-01-08 00:00:00 2.5 0 Calma 4 Noroeste 1 -- -- 98
2021-01-07 23:00:00 2.5 3 Norte 5 Norte 0.6 -- -- 98
2021-01-07 22:00:00 2.4 0 Calma 5 Nordeste 0.4 -- -- 98
2021-01-07 21:00:00 2.4 0 Calma 6 Nordeste 0.4 -- -- 98
2021-01-07 20:00:00 2.5 2 Norte 5 Norte 0.2 -- -- 98
2021-01-07 19:00:00 2.4 2 Norte 8 Nordeste 0.4 -- -- 98
2021-01-07 18:00:00 2.5 3 Nordeste 7 Nordeste 0.8 -- -- 97
2021-01-07 17:00:00 2.7 3 Norte 6 Norte 1 -- -- 97
2021-01-07 16:00:00 3 3 Norte 7 Norte 0.6 -- -- 97
2021-01-07 15:00:00 3 0 Calma 4 Nordeste 1.2 -- -- 96
2021-01-07 14:00:00 2.9 3 Noroeste 8 Oeste 1.4 -- -- 97
2021-01-07 13:00:00 3.1 3 Noroeste 9 Noroeste 0.8 -- -- 97
2021-01-07 12:00:00 3.7 2 Sudoeste 6 Sur 0.8 -- -- 96
2021-01-07 11:00:00 2.9 0 Calma 4 Oeste 1 -- -- 97
2021-01-07 10:00:00 2.3 0 Calma 4 Oeste 0.2 -- -- 97
2021-01-07 09:00:00 2.2 0 Calma 3 Oeste 0.2 -- -- 97
2021-01-07 08:00:00 2.3 0 Calma 4 Oeste 0.2 -- -- 97
2021-01-07 07:00:00 2.4 0 Calma 6 Sudoeste 0 -- -- 97
2021-01-07 06:00:00 2.6 0 Calma 7 Oeste 0.2 -- -- 96
2021-01-07 05:00:00 2.8 2 Oeste 14 Este 0 -- -- 96
2021-01-07 04:00:00 2.9 3 Norte 10 Norte 0 -- -- 96
2021-01-07 03:00:00 3 5 Noroeste 8 Noroeste 0.8 -- -- 96
2021-01-07 02:00:00 3.1 0 Calma 4 Noroeste 0.4 -- -- 95
2021-01-07 01:00:00 3 0 Calma 0 Calma 1.2 -- -- 93
2021-01-07 00:00:00 3.4 0 Calma 5 Este 0.6 -- -- 89
2021-01-06 23:00:00 4.6 3 Este 10 Sudeste 0.4 -- -- 83
2021-01-06 22:00:00 5.5 2 Sudeste 10 Este 0 -- -- 71
2021-01-06 21:00:00 5.5 0 Calma 10 Este 0 -- -- 66
2021-01-06 20:00:00 4.8 3 Sur 7 Sudeste 0 -- -- 68
2021-01-06 19:00:00 4.1 0 Calma 3 Sur 0 -- -- 72
2021-01-06 18:00:00 5.2 0 Calma 5 Norte 0 -- -- 65
2021-01-06 17:00:00 6.3 3 Norte 8 Noroeste 0 -- -- 61
2021-01-06 16:00:00 7 2 Noroeste 8 Noroeste 0 -- -- 57
2021-01-06 15:00:00 5.8 3 Noroeste 6 Noroeste 0 -- -- 60
2021-01-06 14:00:00 5.5 3 Norte 8 Noroeste 0 -- -- 63
2021-01-06 13:00:00 4.7 3 Noroeste 6 Noroeste 0 -- -- 66
2021-01-06 12:00:00 4.1 3 Norte 6 Norte 0 -- -- 71
2021-01-06 11:00:00 2 0 Calma 5 Noroeste 0 -- -- 77
2021-01-06 10:00:00 1.7 0 Calma 5 Sudoeste 0 -- -- 80
2021-01-06 09:00:00 0.3 2 Este 4 Este 0 -- -- 86
2021-01-06 08:00:00 0.2 3 Sur 5 Sur 0 -- -- 85
2021-01-06 07:00:00 0 0 Calma 4 Norte 0 -- -- 85
2021-01-06 06:00:00 0.1 0 Calma 3 Sur 0 -- -- 84
2021-01-06 05:00:00 0.2 0 Calma 5 Sudoeste 0 -- -- 83
2021-01-06 04:00:00 0.4 3 Sur 5 Sur 0 -- -- 79
2021-01-06 03:00:00 0.4 3 Sur 5 Sur 0 -- -- 79
2021-01-06 02:00:00 0.8 3 Sur 6 Sur 0 -- -- 78
2021-01-06 01:00:00 0.4 3 Sur 6 Sur 0 -- -- 79
2021-01-06 00:00:00 0.8 3 Sur 8 Sur 0 -- -- 77
2021-01-05 23:00:00 0.7 2 Sudoeste 5 Sur 0 -- -- 77
2021-01-05 22:00:00 1 0 Calma 4 Sudoeste 0 -- -- 76
2021-01-05 21:00:00 1.2 3 Sur 6 Sur 0 -- -- 77
2021-01-05 20:00:00 1.6 2 Sur 3 Sudoeste 0 -- -- 78
2021-01-05 19:00:00 2.2 0 Calma 7 Este 0 -- -- 74
2021-01-05 18:00:00 3.5 4 Este 6 Este 0 -- -- 72
2021-01-05 17:00:00 5.6 2 Norte 6 Nordeste 0 -- -- 62
2021-01-05 16:00:00 6.4 5 Norte 9 Noroeste 0 -- -- 58
2021-01-05 15:00:00 6.4 3 Noroeste 9 Noroeste 0 -- -- 66
2021-01-05 14:00:00 5 5 Norte 11 Norte 0 -- -- 91
2021-01-05 13:00:00 3.4 4 Norte 9 Norte 0.2 -- -- 96
2021-01-05 12:00:00 0 0 Calma 3 Noroeste 0.2 -- -- 96
2021-01-05 11:00:00 -1.1 0 Calma 4 Noroeste 0 -- -- 97
2021-01-05 10:00:00 -1.7 2 Noroeste 5 Noroeste 0 -- -- 97
2021-01-05 09:00:00 -1.5 0 Calma 4 Noroeste 0 -- -- 97
2021-01-05 08:00:00 -0.4 0 Calma 3 Este 0 -- -- 97
2021-01-05 07:00:00 -0.2 0 Calma 6 Norte 0 -- -- 97
2021-01-05 06:00:00 -0.1 2 Noroeste 6 Nordeste 0 -- -- 96
2021-01-05 05:00:00 0.2 0 Calma 5 Este 0 -- -- 97
2021-01-05 04:00:00 0 0 Calma 3 Sur 0 -- -- 96
2021-01-05 03:00:00 -0.3 0 Calma 3 Sur 0 -- -- 96
2021-01-05 02:00:00 -0.1 0 Calma 5 Sur 0 -- -- 96
2021-01-05 01:00:00 1 3 Sur 10 Sudeste 0 -- -- 95
2021-01-05 00:00:00 1.3 6 Sur 11 Sudeste 0.4 -- -- 94
2021-01-04 23:00:00 1.5 4 Sur 15 Sudeste 0.4 -- -- 94
2021-01-04 22:00:00 1.2 5 Sudeste 12 Sudeste 0.4 -- -- 93
2021-01-04 21:00:00 1.5 0 Calma 10 Oeste 1 -- -- 90
2021-01-04 20:00:00 3 0 Calma 15 Sur 0 -- -- 82
2021-01-04 19:00:00 3.4 4 Sur 14 Sudoeste 0 -- -- 80
2021-01-04 18:00:00 3.2 5 Sudoeste 12 Sudoeste 0 -- -- 80
2021-01-04 17:00:00 3.2 7 Noroeste 15 Noroeste 0 -- -- 81
2021-01-04 16:00:00 3.8 7 Oeste 18 Oeste 0 -- -- 78
2021-01-04 15:00:00 3 6 Oeste 15 Oeste 0 -- -- 80
2021-01-04 14:00:00 3.5 6 Oeste 21 Sudoeste 0 -- -- 77
2021-01-04 13:00:00 3.3 5 Oeste 13 Noroeste 0 -- -- 77
2021-01-04 12:00:00 3.6 4 Sudoeste 18 Sudoeste 0 -- -- 75
2021-01-04 11:00:00 2.8 4 Sudoeste 14 Sur 0 -- -- 77
2021-01-04 10:00:00 1.7 3 Sur 12 Sudeste 0 -- -- 82
2021-01-04 09:00:00 0.7 2 Sur 7 Sudoeste 0 -- -- 86
2021-01-04 08:00:00 -0.1 2 Sudoeste 9 Sudoeste 0 -- -- 85
2021-01-04 07:00:00 -0.8 0 Calma 7 Sudeste 0 -- -- 87
2021-01-04 06:00:00 0.6 4 Sudoeste 11 Sur 0 -- -- 83
2021-01-04 05:00:00 0.8 3 Sur 9 Sudeste 0 -- -- 79
2021-01-04 04:00:00 0.9 4 Sudeste 10 Sur 0 -- -- 74
2021-01-04 03:00:00 2.5 3 Sudoeste 12 Sur 0 -- -- 68
2021-01-04 02:00:00 2.9 4 Sur 14 Sudoeste 0 -- -- 67
2021-01-04 01:00:00 2.9 7 Sur 15 Sur 0 -- -- 67
2021-01-04 00:00:00 2.5 4 Sur 9 Sur 0 -- -- 69
2021-01-03 23:00:00 2.5 5 Sur 14 Sur 0 -- -- 68
2021-01-03 22:00:00 2.3 5 Sur 14 Sur 0 -- -- 66
2021-01-03 21:00:00 2.1 4 Sur 16 Sur 0 -- -- 64
2021-01-03 20:00:00 0.4 0 Calma 6 Sur 0 -- -- 70
2021-01-03 19:00:00 2.4 4 Sur 9 Sur 0 -- -- 63
2021-01-03 18:00:00 3.6 4 Sudoeste 17 Sudoeste 0 -- -- 56
2021-01-03 17:00:00 5.7 9 Sur 17 Sur 0 -- -- 48
2021-01-03 16:00:00 5.9 9 Sur 20 Sudoeste 0 -- -- 51
2021-01-03 15:00:00 6.8 8 Sudoeste 21 Sur 0 -- -- 49
2021-01-03 14:00:00 6.5 10 Sudoeste 20 Sudoeste 0 -- -- 51
2021-01-03 13:00:00 5.3 7 Sur 17 Sudoeste 0 -- -- 55
2021-01-03 12:00:00 3.8 8 Sur 15 Sur 0 -- -- 60
2021-01-03 11:00:00 1.5 9 Sudoeste 15 Sudoeste 0 -- -- 67
2021-01-03 10:00:00 -0.8 4 Sur 7 Sudoeste 0 -- -- 82
2021-01-03 09:00:00 -1.7 2 Sur 10 Sudeste 0 -- -- 83
2021-01-03 08:00:00 -1.6 5 Sudeste 9 Sudeste 0 -- -- 83
2021-01-03 07:00:00 -1.5 3 Sur 10 Sur 0 -- -- 78
2021-01-03 06:00:00 -1.9 4 Sur 7 Sudeste 0 -- -- 76
2021-01-03 05:00:00 -2.1 3 Sur 7 Sudeste 0 -- -- 77
2021-01-03 04:00:00 -1.7 4 Sur 7 Sudeste 0 -- -- 77
2021-01-03 03:00:00 -2.5 0 Calma 5 Sur 0 -- -- 82
2021-01-03 02:00:00 -1.7 3 Sur 5 Sur 0 -- -- 84
2021-01-03 01:00:00 -1.6 0 Calma 6 Sur 0 -- -- 84
2021-01-03 00:00:00 -1 2 Sur 3 Sur 0 -- -- 87
2021-01-02 23:00:00 -0.6 0 Calma 3 Sudoeste 0 -- -- 87
2021-01-02 22:00:00 1.2 2 Nordeste 4 Norte 0 -- -- 87
2021-01-02 21:00:00 2 0 Calma 8 Nordeste 0 -- -- 87
2021-01-02 20:00:00 2.1 3 Nordeste 9 Oeste 0 -- -- 84
2021-01-02 19:00:00 3.5 4 Oeste 17 Sudoeste 0 -- -- 76
2021-01-02 18:00:00 4 4 Oeste 9 Oeste 0 -- -- 65
2021-01-02 17:00:00 4.5 3 Noroeste 14 Sudoeste 0 -- -- 64
2021-01-02 16:00:00 4.9 5 Sudoeste 17 Oeste 0 -- -- 64
2021-01-02 15:00:00 5.4 7 Oeste 17 Oeste 0 -- -- 61
2021-01-02 14:00:00 4.5 6 Noroeste 13 Sur 0 -- -- 60